Time;durP1;ratioP1;P1;durP2;ratioP2;P2;SDS_P1;SDS_P2;PMS_P1;PMS_P2;Temp;Humidity;BMP_temperature;BMP_pressure;BME280_temperature;BME280_humidity;BME280_pressure;Samples;Min_cycle;Max_cycle;Signal;HPM_P1;HPM_P2
2023/03/28 00:01:55;;;;;;;10.27;3.17;;;1.30;99.90;;;;;;4962902;28;20039;-74
2023/03/28 00:04:25;;;;;;;5.40;1.20;;;1.30;99.90;;;;;;4973812;28;20054;-74
2023/03/28 00:06:52;;;;;;;16.48;2.97;;;1.20;99.90;;;;;;4969064;28;20038;-74
2023/03/28 00:09:18;;;;;;;8.63;1.17;;;1.20;99.90;;;;;;4966683;28;20043;-75
2023/03/28 00:11:44;;;;;;;9.40;2.20;;;1.10;99.90;;;;;;4953859;28;20118;-74
2023/03/28 00:14:12;;;;;;;11.32;2.95;;;1.10;99.90;;;;;;4968088;28;20122;-74
2023/03/28 00:16:38;;;;;;;9.35;2.83;;;1.00;99.90;;;;;;4953677;29;20497;-74
2023/03/28 00:19:07;;;;;;;13.50;2.83;;;1.00;99.90;;;;;;4953104;29;20053;-74
2023/03/28 00:21:36;;;;;;;7.80;1.40;;;1.00;99.90;;;;;;4950662;28;20046;-74
2023/03/28 00:24:04;;;;;;;10.88;2.60;;;0.90;99.90;;;;;;4961913;28;20446;-75
2023/03/28 00:26:35;;;;;;;10.98;2.50;;;0.90;99.90;;;;;;4959692;28;20043;-75
2023/03/28 00:29:03;;;;;;;9.95;3.00;;;0.90;99.90;;;;;;4965217;28;20478;-74
2023/03/28 00:31:29;;;;;;;4.03;1.02;;;0.90;99.90;;;;;;4952257;28;20119;-75
2023/03/28 00:33:55;;;;;;;12.57;2.63;;;0.90;99.90;;;;;;4951553;28;20061;-74
2023/03/28 00:36:21;;;;;;;8.07;1.30;;;0.90;99.90;;;;;;4968432;28;20038;-74
2023/03/28 00:38:52;;;;;;;8.45;2.50;;;0.80;99.90;;;;;;4973039;28;20049;-75
2023/03/28 00:41:20;;;;;;;10.18;2.72;;;0.70;99.90;;;;;;4959650;28;20052;-75
2023/03/28 00:43:49;;;;;;;7.03;1.42;;;0.70;99.90;;;;;;4949969;28;20456;-75
2023/03/28 00:46:21;;;;;;;4.35;1.00;;;0.60;99.90;;;;;;4969518;28;20094;-75
2023/03/28 00:49:14;;;;;;;6.63;1.25;;;0.50;99.90;;;;;;4953539;29;20046;-75
2023/03/28 00:51:55;;;;;;;14.07;4.03;;;0.50;99.90;;;;;;4943282;28;20131;-75
2023/03/28 00:54:23;;;;;;;8.13;1.65;;;0.40;99.90;;;;;;4955051;28;20031;-75
2023/03/28 00:56:51;;;;;;;3.05;0.98;;;0.40;99.90;;;;;;4969137;28;20042;-75
2023/03/28 00:59:22;;;;;;;3.33;1.05;;;0.30;99.90;;;;;;4972619;28;20493;-75
2023/03/28 01:01:48;;;;;;;5.32;1.02;;;0.20;99.90;;;;;;4964357;28;20503;-75
2023/03/28 01:04:19;;;;;;;7.25;2.33;;;0.10;99.90;;;;;;4966505;28;20082;-75
2023/03/28 01:06:48;;;;;;;12.20;2.40;;;0.10;99.90;;;;;;4953782;28;20055;-75
2023/03/28 01:09:15;;;;;;;6.38;1.52;;;0.00;99.90;;;;;;4972076;28;20039;-75
2023/03/28 01:11:43;;;;;;;2.17;1.05;;;0.00;99.90;;;;;;4967642;28;20047;-75
2023/03/28 01:14:12;;;;;;;4.88;1.20;;;-0.10;99.90;;;;;;4934306;28;20048;-75
2023/03/28 01:16:40;;;;;;;5.50;1.55;;;-0.20;99.90;;;;;;4958005;28;20043;-75
2023/03/28 01:19:30;;;;;;;3.15;1.13;;;-0.20;99.90;;;;;;4935853;29;20475;-75
2023/03/28 01:22:28;;;;;;;11.73;2.65;;;-0.10;99.90;;;;;;4940571;28;20172;-75
2023/03/28 01:25:25;;;;;;;12.23;2.67;;;-0.10;99.90;;;;;;4954696;28;20401;-75
2023/03/28 01:28:06;;;;;;;10.57;1.00;;;-0.10;99.90;;;;;;4972243;28;20047;-75
2023/03/28 01:30:52;;;;;;;6.45;1.40;;;-0.10;99.90;;;;;;4972161;28;20054;-75
2023/03/28 01:34:02;;;;;;;7.85;1.35;;;-0.10;99.90;;;;;;4958791;28;20043;-75
2023/03/28 01:36:55;;;;;;;3.67;1.05;;;-0.10;99.90;;;;;;4868173;29;20036;-75
2023/03/28 01:39:55;;;;;;;2.20;0.90;;;-0.10;99.90;;;;;;4955947;28;20042;-75
2023/03/28 01:42:52;;;;;;;4.53;0.70;;;-0.10;99.90;;;;;;4932384;28;20047;-75
2023/03/28 01:45:23;;;;;;;5.53;1.30;;;-0.10;99.90;;;;;;4959648;28;20405;-75
2023/03/28 01:48:00;;;;;;;8.52;1.30;;;0.00;99.90;;;;;;4946699;28;20127;-75
2023/03/28 01:50:37;;;;;;;8.05;2.58;;;0.00;99.90;;;;;;4953666;28;20067;-75
2023/03/28 01:53:37;;;;;;;8.73;2.67;;;0.00;99.90;;;;;;4957423;28;20035;-75
2023/03/28 01:56:10;;;;;;;8.82;1.17;;;0.00;99.90;;;;;;4932804;28;20126;-75
2023/03/28 01:59:07;;;;;;;4.03;0.90;;;0.10;99.90;;;;;;4958720;28;20050;-75
2023/03/28 02:01:48;;;;;;;10.75;1.38;;;0.00;99.90;;;;;;4957872;28;20145;-75
2023/03/28 02:04:19;;;;;;;9.50;2.60;;;-0.10;99.90;;;;;;4963071;28;20498;-75
2023/03/28 02:06:47;;;;;;;4.45;0.68;;;-0.10;99.90;;;;;;4969634;28;20047;-75
2023/03/28 02:09:15;;;;;;;1.88;1.05;;;-0.20;99.90;;;;;;4962970;28;20043;-75
2023/03/28 02:11:43;;;;;;;8.55;1.63;;;-0.30;99.90;;;;;;4968665;28;20256;-75
2023/03/28 02:14:13;;;;;;;3.92;1.10;;;-0.40;99.90;;;;;;4949112;28;20044;-75
2023/03/28 02:16:40;;;;;;;2.72;1.02;;;-0.40;99.90;;;;;;4948665;28;20046;-75
2023/03/28 02:19:07;;;;;;;14.00;2.90;;;-0.40;99.90;;;;;;4963833;28;20086;-75
2023/03/28 02:21:50;;;;;;;17.05;3.30;;;-0.40;99.90;;;;;;4966996;28;20085;-75
2023/03/28 02:24:15;;;;;;;;;;;-0.40;99.90;;;;;;4931403;28;20473;-75
2023/03/28 02:26:42;;;;;;;8.32;1.30;;;-0.40;99.90;;;;;;4962745;28;19929;-75
2023/03/28 02:29:08;;;;;;;8.82;1.25;;;-0.40;99.90;;;;;;4970975;28;20467;-76
2023/03/28 02:31:35;;;;;;;1.90;0.90;;;-0.30;99.90;;;;;;4959594;28;20054;-75
2023/03/28 02:34:01;;;;;;;13.48;1.45;;;-0.30;99.90;;;;;;4906879;28;1172717;-75
2023/03/28 02:36:37;;;;;;;11.38;1.58;;;-0.20;99.90;;;;;;4959155;28;20375;-75
2023/03/28 02:39:13;;;;;;;3.97;1.00;;;-0.20;99.90;;;;;;4973854;28;20050;-75
2023/03/28 02:42:08;;;;;;;6.22;0.95;;;-0.20;99.90;;;;;;4970109;28;20053;-75
2023/03/28 02:44:59;;;;;;;9.00;2.80;;;-0.20;99.90;;;;;;4955705;28;20043;-75
2023/03/28 02:48:03;;;;;;;5.53;1.35;;;-0.20;99.90;;;;;;4945310;28;20034;-75
2023/03/28 02:50:42;;;;;;;11.32;1.63;;;-0.20;99.90;;;;;;4932464;29;20066;-75
2023/03/28 02:53:13;;;;;;;9.57;0.95;;;-0.20;99.90;;;;;;4936410;29;20059;-75
2023/03/28 02:55:56;;;;;;;6.82;0.95;;;-0.20;99.90;;;;;;4958617;28;20046;-75
2023/03/28 02:58:29;;;;;;;2.05;0.82;;;-0.30;99.90;;;;;;4936920;29;20090;-75
2023/03/28 03:00:54;;;;;;;;;;;-0.40;99.90;;;;;;4940609;28;20510;-75
2023/03/28 03:03:22;;;;;;;3.70;2.42;;;-0.40;99.90;;;;;;4940125;28;19918;-75
2023/03/28 03:05:47;;;;;;;1.77;0.63;;;-0.40;99.90;;;;;;4960320;28;20078;-75
2023/03/28 03:08:13;;;;;;;7.55;1.30;;;-0.40;99.90;;;;;;4974785;28;20074;-75
2023/03/28 03:10:39;;;;;;;4.18;1.40;;;-0.40;99.90;;;;;;4959417;28;20039;-75
2023/03/28 03:13:05;;;;;;;11.52;2.85;;;-0.30;99.90;;;;;;4971535;28;20042;-75
2023/03/28 03:15:30;;;;;;;3.65;0.95;;;-0.30;99.90;;;;;;4961751;28;20058;-75
2023/03/28 03:17:59;;;;;;;6.82;0.85;;;-0.30;99.90;;;;;;4972278;28;20085;-75
2023/03/28 03:20:26;;;;;;;11.18;1.63;;;-0.20;99.90;;;;;;4974919;28;20038;-75
2023/03/28 03:22:53;;;;;;;10.20;1.42;;;-0.10;99.90;;;;;;4974669;28;20465;-75
2023/03/28 03:25:19;;;;;;;6.03;1.10;;;-0.10;99.90;;;;;;4965358;28;20508;-75
2023/03/28 03:27:44;;;;;;;6.18;1.85;;;-0.10;99.90;;;;;;4970271;28;20035;-75
2023/03/28 03:30:13;;;;;;;9.68;2.67;;;-0.20;99.90;;;;;;4974507;28;20073;-75
2023/03/28 03:32:40;;;;;;;17.45;3.13;;;-0.20;99.90;;;;;;4974247;28;20049;-75
2023/03/28 03:35:06;;;;;;;6.80;1.25;;;-0.20;99.90;;;;;;4952540;28;20031;-75
2023/03/28 03:37:31;;;;;;;13.43;3.13;;;-0.10;99.90;;;;;;4959082;28;20062;-75
2023/03/28 03:39:56;;;;;;;8.25;1.75;;;-0.10;99.90;;;;;;4958971;28;20044;-75
2023/03/28 03:42:22;;;;;;;4.70;1.05;;;-0.20;99.90;;;;;;4973963;28;20047;-75
2023/03/28 03:44:47;;;;;;;4.45;1.27;;;-0.20;99.90;;;;;;4970331;28;20398;-75
2023/03/28 03:47:16;;;;;;;5.20;1.00;;;-0.20;99.90;;;;;;4966513;28;20520;-75
2023/03/28 03:49:42;;;;;;;6.75;1.13;;;-0.20;99.90;;;;;;4973022;28;20062;-75
2023/03/28 03:52:07;;;;;;;1.50;0.70;;;-0.20;99.90;;;;;;4970909;28;20047;-75
2023/03/28 03:54:33;;;;;;;4.57;1.73;;;-0.20;99.90;;;;;;4966706;28;20039;-75
2023/03/28 03:56:58;;;;;;;7.07;1.10;;;-0.30;99.90;;;;;;4967004;28;20034;-75
2023/03/28 03:59:24;;;;;;;7.03;1.23;;;-0.40;99.90;;;;;;4967127;28;20097;-75
2023/03/28 04:01:49;;;;;;;16.30;2.42;;;-0.40;99.90;;;;;;4974157;28;20094;-75
2023/03/28 04:04:15;;;;;;;9.52;2.50;;;-0.40;99.90;;;;;;4946613;28;20076;-75
2023/03/28 04:06:40;;;;;;;5.63;1.40;;;-0.50;99.90;;;;;;4954285;28;20157;-75
2023/03/28 04:09:07;;;;;;;5.47;1.52;;;-0.50;99.90;;;;;;4964945;28;20556;-75
2023/03/28 04:11:34;;;;;;;10.75;3.25;;;-0.60;99.90;;;;;;4973788;28;20118;-75
2023/03/28 04:13:59;;;;;;;9.20;1.00;;;-0.60;99.90;;;;;;4965310;28;20054;-75
2023/03/28 04:16:25;;;;;;;7.00;1.38;;;-0.70;99.90;;;;;;4965853;28;20039;-75
2023/03/28 04:18:51;;;;;;;5.32;1.15;;;-0.70;99.90;;;;;;4967144;28;20042;-75
2023/03/28 04:21:19;;;;;;;6.43;1.25;;;-0.80;99.90;;;;;;4973419;28;20042;-75
2023/03/28 04:23:47;;;;;;;3.92;1.75;;;-0.80;99.90;;;;;;4964588;28;20044;-75
2023/03/28 04:26:14;;;;;;;11.15;2.75;;;-0.80;99.90;;;;;;4964545;28;20088;-75
2023/03/28 04:28:40;;;;;;;5.20;1.50;;;-0.70;99.90;;;;;;4973881;28;20043;-75
2023/03/28 04:31:06;;;;;;;4.78;1.10;;;-0.60;99.90;;;;;;4971098;28;20047;-75
2023/03/28 04:33:32;;;;;;;4.90;1.23;;;-0.60;99.90;;;;;;4954652;28;20039;-75
2023/03/28 04:36:00;;;;;;;7.20;1.58;;;-0.50;99.90;;;;;;4960187;28;20027;-74
2023/03/28 04:38:27;;;;;;;8.40;3.03;;;-0.50;99.90;;;;;;4963464;28;20035;-74
2023/03/28 04:40:57;;;;;;;4.30;1.55;;;-0.40;99.90;;;;;;4972843;28;20049;-75
2023/03/28 04:43:31;;;;;;;12.15;3.38;;;-0.30;99.90;;;;;;4952492;28;20063;-75
2023/03/28 04:45:58;;;;;;;3.00;1.38;;;-0.30;99.90;;;;;;4964068;28;20047;-74
2023/03/28 04:48:25;;;;;;;11.18;3.42;;;-0.10;99.90;;;;;;4972921;28;20039;-75
2023/03/28 04:50:52;;;;;;;4.78;2.10;;;0.00;99.90;;;;;;4972950;28;20046;-74
2023/03/28 04:53:18;;;;;;;12.65;3.90;;;0.10;99.90;;;;;;4955276;28;20051;-75
2023/03/28 04:55:48;;;;;;;3.50;1.90;;;0.20;99.90;;;;;;4968455;28;20042;-74
2023/03/28 04:58:18;;;;;;;8.93;1.48;;;0.30;99.90;;;;;;4971626;28;20486;-75
2023/03/28 05:00:44;;;;;;;10.60;3.95;;;0.30;99.90;;;;;;4970691;28;20474;-74
2023/03/28 05:03:19;;;;;;;9.18;3.72;;;0.30;99.90;;;;;;4955540;28;20053;-74
2023/03/28 05:05:46;;;;;;;8.82;3.45;;;0.40;99.90;;;;;;4968271;28;20038;-75
2023/03/28 05:08:15;;;;;;;7.70;2.38;;;0.40;99.90;;;;;;4972361;28;20470;-75
2023/03/28 05:10:41;;;;;;;12.27;2.35;;;0.40;99.90;;;;;;4963744;28;20097;-75
2023/03/28 05:13:07;;;;;;;9.90;1.63;;;0.40;99.90;;;;;;4955979;28;20035;-75
2023/03/28 05:15:32;;;;;;;4.00;1.65;;;0.50;99.90;;;;;;4958345;28;20035;-75
2023/03/28 05:17:58;;;;;;;11.63;3.50;;;0.50;99.90;;;;;;4968191;28;20513;-75
2023/03/28 05:20:25;;;;;;;9.70;3.58;;;0.50;99.90;;;;;;4956436;28;20043;-74
2023/03/28 05:22:50;;;;;;;8.20;1.83;;;0.60;99.90;;;;;;4971933;28;20137;-75
2023/03/28 05:25:16;;;;;;;11.70;3.80;;;0.60;99.90;;;;;;4959822;28;20130;-75
2023/03/28 05:27:42;;;;;;;5.00;1.40;;;0.60;99.90;;;;;;4968012;28;20082;-75
2023/03/28 05:30:09;;;;;;;9.57;1.88;;;0.70;99.90;;;;;;4963510;28;20539;-75
2023/03/28 05:32:36;;;;;;;5.75;2.00;;;0.70;99.90;;;;;;4966316;28;20078;-74
2023/03/28 05:35:03;;;;;;;6.90;1.90;;;0.80;99.90;;;;;;4955199;28;20053;-75
2023/03/28 05:37:29;;;;;;;15.68;4.13;;;0.80;99.90;;;;;;4954547;28;20499;-75
2023/03/28 05:39:54;;;;;;;12.45;3.88;;;0.90;99.90;;;;;;4956984;28;20034;-75
2023/03/28 05:42:20;;;;;;;9.60;4.00;;;1.00;99.90;;;;;;4966576;28;20148;-74
2023/03/28 05:44:46;;;;;;;10.73;4.15;;;1.00;99.90;;;;;;4943249;28;20058;-75
2023/03/28 05:47:11;;;;;;;10.73;3.75;;;1.10;99.90;;;;;;4945142;28;20046;-75
2023/03/28 05:49:37;;;;;;;11.38;3.88;;;1.20;99.90;;;;;;4971721;28;20379;-75
2023/03/28 05:52:02;;;;;;;4.25;1.77;;;1.20;99.90;;;;;;4950831;28;20050;-75
2023/03/28 05:54:28;;;;;;;11.80;3.60;;;1.20;99.90;;;;;;4950124;28;20042;-75
2023/03/28 05:56:53;;;;;;;12.55;4.07;;;1.20;99.90;;;;;;4948702;28;20039;-74
2023/03/28 05:59:23;;;;;;;8.40;3.50;;;1.30;99.90;;;;;;4959766;28;20035;-75
2023/03/28 06:01:52;;;;;;;9.20;3.75;;;1.30;99.90;;;;;;4955489;28;20133;-75
2023/03/28 06:04:22;;;;;;;10.27;3.20;;;1.30;99.90;;;;;;4953471;28;20047;-75
2023/03/28 06:06:48;;;;;;;6.50;2.25;;;1.40;99.90;;;;;;4949856;28;20090;-75
2023/03/28 06:09:14;;;;;;;8.45;2.13;;;1.40;99.90;;;;;;4953049;28;20039;-74
2023/03/28 06:11:40;;;;;;;9.02;3.92;;;1.40;99.90;;;;;;4957470;28;20043;-74
2023/03/28 06:14:07;;;;;;;11.45;4.55;;;1.40;99.90;;;;;;4968104;28;21500;-74
2023/03/28 06:16:32;;;;;;;11.98;4.45;;;1.50;99.90;;;;;;4958642;28;20028;-74
2023/03/28 06:18:58;;;;;;;16.10;4.60;;;1.60;99.90;;;;;;4961203;28;20102;-74
2023/03/28 06:21:24;;;;;;;9.70;5.32;;;1.60;99.90;;;;;;4962668;28;20061;-74
2023/03/28 06:23:50;;;;;;;12.88;5.45;;;1.70;99.90;;;;;;4939334;29;20039;-74
2023/03/28 06:26:16;;;;;;;10.35;5.43;;;1.80;99.90;;;;;;4946141;28;20039;-74
2023/03/28 06:28:42;;;;;;;11.43;5.43;;;1.90;99.90;;;;;;4945201;28;20038;-74
2023/03/28 06:31:10;;;;;;;11.50;4.28;;;1.90;99.90;;;;;;4965220;28;20043;-74
2023/03/28 06:33:39;;;;;;;11.05;5.80;;;2.00;99.90;;;;;;4960224;28;20553;-74
2023/03/28 06:36:08;;;;;;;11.57;5.93;;;2.00;99.90;;;;;;4972245;28;20041;-74
2023/03/28 06:38:34;;;;;;;11.52;6.13;;;2.00;99.90;;;;;;4959677;28;20036;-74
2023/03/28 06:40:59;;;;;;;14.10;6.15;;;2.00;99.90;;;;;;4960663;28;20121;-74
2023/03/28 06:43:25;;;;;;;10.40;5.95;;;2.00;99.90;;;;;;4951993;28;20046;-74
2023/03/28 06:45:51;;;;;;;12.63;5.22;;;2.00;99.90;;;;;;4951497;28;20399;-74
2023/03/28 06:48:17;;;;;;;10.73;6.03;;;2.00;99.90;;;;;;4966274;28;20828;-75
2023/03/28 06:50:48;;;;;;;10.02;5.70;;;2.00;99.90;;;;;;4956069;28;20034;-74
2023/03/28 06:53:15;;;;;;;11.68;5.57;;;2.00;99.90;;;;;;4966604;28;20085;-74
2023/03/28 06:55:41;;;;;;;13.07;5.93;;;2.00;99.90;;;;;;4975240;28;20058;-74
2023/03/28 06:58:07;;;;;;;11.10;5.60;;;2.00;99.90;;;;;;4963682;28;20090;-74
2023/03/28 07:00:33;;;;;;;10.75;5.80;;;2.00;99.90;;;;;;4965876;28;20026;-74
2023/03/28 07:02:58;;;;;;;12.88;5.53;;;2.00;99.90;;;;;;4970328;28;20050;-74
2023/03/28 07:05:24;;;;;;;11.25;5.60;;;1.90;99.90;;;;;;4958667;28;20050;-74
2023/03/28 07:07:50;;;;;;;12.80;5.88;;;1.90;99.90;;;;;;4974913;28;20101;-74
2023/03/28 07:10:16;;;;;;;10.70;5.82;;;2.00;99.90;;;;;;4974609;28;20509;-74
2023/03/28 07:12:41;;;;;;;11.85;6.13;;;2.00;99.90;;;;;;4968453;28;20042;-74
2023/03/28 07:15:07;;;;;;;9.77;6.13;;;2.10;99.90;;;;;;4968634;28;20173;-74
2023/03/28 07:17:33;;;;;;;13.05;5.47;;;2.20;99.90;;;;;;4940844;28;20670;-74
2023/03/28 07:19:58;;;;;;;12.75;6.18;;;2.30;99.90;;;;;;4944700;28;20068;-74
2023/03/28 07:22:24;;;;;;;8.70;5.43;;;2.40;99.90;;;;;;4929864;28;20038;-74
2023/03/28 07:24:49;;;;;;;12.63;5.22;;;2.50;99.90;;;;;;4938719;29;20039;-75
2023/03/28 07:27:15;;;;;;;9.27;4.88;;;2.60;99.90;;;;;;4957417;28;20044;-74
2023/03/28 07:29:40;;;;;;;11.40;5.30;;;2.70;99.90;;;;;;4962081;28;20057;-74
2023/03/28 07:32:06;;;;;;;13.75;5.05;;;2.80;99.90;;;;;;4938064;28;20082;-74
2023/03/28 07:34:31;;;;;;;9.70;5.05;;;2.90;99.90;;;;;;4953546;28;20043;-74
2023/03/28 07:36:57;;;;;;;11.85;4.93;;;3.00;99.90;;;;;;4936573;28;20055;-74
2023/03/28 07:39:23;;;;;;;9.80;4.85;;;3.10;99.90;;;;;;4971146;28;20442;-75
2023/03/28 07:41:48;;;;;;;8.73;3.95;;;3.20;99.90;;;;;;4958176;28;20126;-74
2023/03/28 07:44:14;;;;;;;9.35;4.68;;;3.30;99.90;;;;;;4968463;28;20043;-74
2023/03/28 07:46:39;;;;;;;9.38;4.50;;;3.40;99.90;;;;;;4960514;28;20075;-73
2023/03/28 07:49:05;;;;;;;8.30;4.07;;;3.60;99.90;;;;;;4961260;28;20035;-73
2023/03/28 07:51:31;;;;;;;9.13;4.00;;;3.70;99.90;;;;;;4970589;28;20098;-73
2023/03/28 07:53:58;;;;;;;10.20;4.03;;;3.80;99.90;;;;;;4954305;28;20062;-74
2023/03/28 07:56:24;;;;;;;7.68;3.75;;;4.00;99.90;;;;;;4952006;28;20035;-73
2023/03/28 07:58:50;;;;;;;9.20;4.22;;;4.20;99.90;;;;;;4968508;28;20132;-73
2023/03/28 08:01:17;;;;;;;9.40;3.90;;;4.40;99.90;;;;;;4955454;28;20524;-73
2023/03/28 08:03:43;;;;;;;8.77;3.83;;;4.50;99.90;;;;;;4962118;28;20055;-73
2023/03/28 08:06:10;;;;;;;9.73;3.67;;;4.60;99.90;;;;;;4950214;28;20043;-73
2023/03/28 08:08:36;;;;;;;7.07;3.40;;;4.80;99.90;;;;;;4960585;28;20081;-73
2023/03/28 08:11:02;;;;;;;11.50;3.60;;;4.80;99.90;;;;;;4970596;28;20047;-73
2023/03/28 08:13:27;;;;;;;8.30;3.40;;;4.90;99.90;;;;;;4961283;28;20046;-73
2023/03/28 08:15:56;;;;;;;7.00;3.25;;;5.00;99.90;;;;;;4970078;28;20035;-73
2023/03/28 08:18:24;;;;;;;10.32;3.47;;;5.10;99.90;;;;;;4955892;28;20039;-73
2023/03/28 08:20:55;;;;;;;6.65;2.83;;;5.20;99.90;;;;;;4969462;28;20054;-73
2023/03/28 08:23:21;;;;;;;6.35;2.60;;;5.30;99.90;;;;;;4958444;28;20437;-73
2023/03/28 08:25:46;;;;;;;7.78;2.30;;;5.40;99.90;;;;;;4951765;28;20053;-73
2023/03/28 08:28:12;;;;;;;8.52;2.63;;;5.50;99.90;;;;;;4958964;28;20520;-73
2023/03/28 08:30:38;;;;;;;5.50;2.40;;;5.60;99.90;;;;;;4967759;28;20046;-73
2023/03/28 08:33:03;;;;;;;8.57;2.60;;;5.80;99.90;;;;;;4955871;28;20039;-73
2023/03/28 08:35:30;;;;;;;8.30;2.30;;;5.90;99.90;;;;;;4972756;28;20039;-73
2023/03/28 08:37:56;;;;;;;6.05;2.22;;;6.00;99.90;;;;;;4960458;28;20043;-73
2023/03/28 08:40:26;;;;;;;6.07;1.67;;;6.10;99.90;;;;;;4934400;29;20043;-73
2023/03/28 08:43:19;;;;;;;3.83;1.42;;;6.30;99.90;;;;;;4949538;28;20425;-73
2023/03/28 08:45:54;;;;;;;5.15;1.73;;;6.50;99.90;;;;;;4952467;28;20032;-73
2023/03/28 08:48:30;;;;;;;4.70;1.27;;;6.60;99.90;;;;;;4957307;28;20047;-73
2023/03/28 08:51:18;;;;;;;4.40;1.38;;;6.70;99.90;;;;;;4948058;28;20630;-73
2023/03/28 08:53:50;;;;;;;4.53;1.23;;;7.20;99.90;;;;;;4972662;28;20406;-73
2023/03/28 08:56:16;;;;;;;2.03;1.15;;;7.70;99.90;;;;;;4958610;28;20053;-74
2023/03/28 08:58:57;;;;;;;5.60;1.00;;;8.20;99.90;;;;;;4959137;28;20044;-74
2023/03/28 09:01:28;;;;;;;4.22;1.17;;;8.40;99.90;;;;;;4954083;28;20042;-73
2023/03/28 09:03:53;;;;;;;7.00;1.10;;;8.70;99.90;;;;;;4953156;29;20035;-74
2023/03/28 09:06:41;;;;;;;3.33;1.42;;;8.80;99.90;;;;;;4954071;28;20034;-74
2023/03/28 09:09:37;;;;;;;6.03;1.40;;;8.80;99.90;;;;;;4952389;28;20492;-73
2023/03/28 09:12:25;;;;;;;6.13;1.83;;;8.90;99.90;;;;;;4963014;28;20097;-74
2023/03/28 09:15:10;;;;;;;4.07;1.40;;;8.80;99.90;;;;;;4953381;29;20110;-74
2023/03/28 09:18:08;;;;;;;3.13;1.00;;;8.90;99.90;;;;;;4947784;28;20393;-74
2023/03/28 09:20:53;;;;;;;4.35;1.67;;;9.10;99.90;;;;;;4932868;28;20098;-74
2023/03/28 09:23:37;;;;;;;2.08;1.00;;;9.60;99.90;;;;;;4939769;28;20509;-74
2023/03/28 09:26:13;;;;;;;4.78;1.02;;;9.80;99.90;;;;;;4949916;28;20406;-73
2023/03/28 09:29:03;;;;;;;3.75;1.00;;;9.70;99.90;;;;;;4956963;28;20030;-74
2023/03/28 09:31:36;;;;;;;2.30;0.90;;;9.70;99.90;;;;;;4961140;28;20050;-74
2023/03/28 09:34:02;;;;;;;4.40;1.10;;;9.60;99.90;;;;;;4957022;28;20044;-77
2023/03/28 09:36:31;;;;;;;2.25;0.98;;;9.30;99.90;;;;;;4952662;28;20401;-75
2023/03/28 09:39:12;;;;;;;3.72;0.98;;;9.00;99.90;;;;;;4960621;28;20035;-75
2023/03/28 09:42:05;;;;;;;3.65;1.23;;;8.90;99.90;;;;;;4971946;28;20055;-73
2023/03/28 09:44:43;;;;;;;3.92;1.33;;;9.00;99.90;;;;;;4971836;28;20046;-73
2023/03/28 09:47:11;;;;;;;3.63;1.30;;;9.10;99.90;;;;;;4967004;28;20046;-73
2023/03/28 09:49:37;;;;;;;3.75;1.30;;;9.10;99.90;;;;;;4972219;28;20043;-73
2023/03/28 09:52:17;;;;;;;5.05;1.67;;;9.00;99.90;;;;;;4960046;28;20124;-74
2023/03/28 09:54:44;;;;;;;4.05;1.58;;;8.90;99.90;;;;;;4971800;28;20038;-73
2023/03/28 09:57:09;;;;;;;4.72;2.05;;;8.70;99.90;;;;;;4971772;28;20117;-76
2023/03/28 09:59:35;;;;;;;5.47;1.92;;;8.70;99.90;;;;;;4963839;28;20134;-74
2023/03/28 10:02:02;;;;;;;4.28;1.70;;;8.70;99.90;;;;;;4953248;28;20057;-74
2023/03/28 10:04:28;;;;;;;5.10;1.83;;;8.70;99.90;;;;;;4963165;28;20039;-74
2023/03/28 10:07:09;;;;;;;5.68;1.85;;;9.00;99.90;;;;;;4971794;28;20413;-74
2023/03/28 10:09:49;;;;;;;3.78;2.00;;;9.40;99.90;;;;;;4971630;28;20074;-74
2023/03/28 10:12:24;;;;;;;8.13;2.08;;;9.30;99.90;;;;;;4953959;28;20183;-74
2023/03/28 10:14:50;;;;;;;6.78;2.13;;;9.20;99.90;;;;;;4955496;28;20494;-74
2023/03/28 10:17:24;;;;;;;5.95;2.22;;;9.00;99.90;;;;;;4940543;28;20097;-74
2023/03/28 10:19:51;;;;;;;4.15;2.10;;;9.10;99.90;;;;;;4942653;28;20062;-73
2023/03/28 10:22:26;;;;;;;5.07;2.10;;;9.20;99.90;;;;;;4950193;28;20063;-72
2023/03/28 10:24:53;;;;;;;4.13;2.17;;;9.40;99.90;;;;;;4958954;28;20054;-72
2023/03/28 10:27:31;;;;;;;3.83;2.30;;;9.50;99.90;;;;;;4971344;28;20133;-72
2023/03/28 10:30:06;;;;;;;4.43;2.25;;;9.80;99.90;;;;;;4950735;28;20051;-73
2023/03/28 10:32:32;;;;;;;4.57;2.28;;;10.20;99.90;;;;;;4953569;28;20138;-72
2023/03/28 10:35:07;;;;;;;4.97;2.30;;;10.30;99.90;;;;;;4936689;29;20068;-72
2023/03/28 10:37:33;;;;;;;4.13;2.20;;;10.40;95.40;;;;;;4945490;28;20518;-72
2023/03/28 10:40:21;;;;;;;8.98;2.78;;;10.40;93.40;;;;;;4960230;28;20047;-72
2023/03/28 10:42:50;;;;;;;5.15;2.08;;;10.50;92.30;;;;;;4946837;28;20039;-72
2023/03/28 10:45:18;;;;;;;5.35;2.03;;;10.50;87.60;;;;;;4962841;28;20047;-72
2023/03/28 10:47:44;;;;;;;4.10;2.60;;;10.30;89.40;;;;;;4945856;28;20071;-72
2023/03/28 10:50:34;;;;;;;5.15;2.20;;;10.00;87.90;;;;;;4953056;28;20087;-72
2023/03/28 10:53:28;;;;;;;5.93;2.55;;;9.70;88.80;;;;;;4962739;28;20430;-72
2023/03/28 10:56:28;;;;;;;6.28;2.22;;;9.50;91.50;;;;;;4951868;29;20059;-72
2023/03/28 10:58:53;;;;;;;5.53;2.13;;;9.30;96.00;;;;;;4954736;28;20043;-72
2023/03/28 11:01:23;;;;;;;5.00;2.72;;;9.20;99.90;;;;;;4968025;28;20043;-73
2023/03/28 11:04:00;;;;;;;3.67;2.33;;;9.10;99.90;;;;;;4962824;28;20560;-72
2023/03/28 11:06:53;;;;;;;6.78;2.60;;;9.10;99.90;;;;;;4943616;28;20449;-72
2023/03/28 11:09:23;;;;;;;4.32;2.70;;;9.10;99.90;;;;;;4937724;28;20059;-74
2023/03/28 11:12:04;;;;;;;3.90;2.42;;;9.20;99.90;;;;;;4958669;28;20449;-75
2023/03/28 11:14:44;;;;;;;5.00;2.75;;;9.40;99.90;;;;;;4937036;29;20067;-73
2023/03/28 11:17:19;;;;;;;6.22;2.45;;;9.80;99.90;;;;;;4950979;28;20487;-72
2023/03/28 11:19:47;;;;;;;3.38;2.15;;;10.00;98.90;;;;;;4964467;28;20382;-72
2023/03/28 11:22:27;;;;;;;5.70;2.35;;;10.00;93.70;;;;;;4974393;28;20493;-72
2023/03/28 11:25:06;;;;;;;6.28;2.60;;;10.20;94.90;;;;;;4974226;28;20078;-72
2023/03/28 11:27:41;;;;;;;7.75;3.38;;;10.50;90.80;;;;;;4974700;28;20077;-73
2023/03/28 11:30:17;;;;;;;4.20;2.30;;;10.40;87.70;;;;;;4954174;28;20143;-73
2023/03/28 11:33:08;;;;;;;5.78;2.33;;;10.60;96.00;;;;;;4946284;28;20063;-73
2023/03/28 11:35:44;;;;;;;4.28;1.90;;;10.90;92.20;;;;;;4942555;28;20728;-72
2023/03/28 11:38:12;;;;;;;4.55;2.10;;;11.00;90.80;;;;;;4963341;28;20042;-73
2023/03/28 11:41:29;;;;;;;4.57;1.90;;;11.00;90.40;;;;;;4956537;28;20483;-73
2023/03/28 11:44:14;;;;;;;3.10;1.83;;;11.20;87.80;;;;;;4942450;28;20495;-73
2023/03/28 11:46:51;;;;;;;4.95;1.88;;;11.60;79.50;;;;;;4946058;28;20039;-73
2023/03/28 11:49:40;;;;;;;5.07;2.15;;;12.20;75.70;;;;;;4947247;28;20043;-74
2023/03/28 11:52:21;;;;;;;5.50;2.60;;;12.50;75.10;;;;;;4948967;28;20106;-73
2023/03/28 11:55:11;;;;;;;4.40;2.20;;;12.80;73.80;;;;;;4957791;28;20074;-73
2023/03/28 11:58:09;;;;;;;4.85;1.73;;;12.90;75.20;;;;;;4961641;28;20119;-73
2023/03/28 12:00:42;;;;;;;4.65;1.92;;;12.60;65.50;;;;;;4973621;28;20061;-72
2023/03/28 12:03:30;;;;;;;5.67;2.00;;;12.40;71.20;;;;;;4927639;28;20036;-73
2023/03/28 12:06:21;;;;;;;3.95;2.33;;;12.30;70.60;;;;;;4960500;28;20039;-72
2023/03/28 12:09:01;;;;;;;5.03;2.30;;;12.10;70.90;;;;;;4955455;28;20040;-73
2023/03/28 12:11:35;;;;;;;4.72;2.10;;;12.10;68.30;;;;;;4947626;28;20502;-72
2023/03/28 12:14:21;;;;;;;4.00;2.08;;;12.30;72.50;;;;;;4956238;28;20031;-73
2023/03/28 12:16:49;;;;;;;3.80;1.90;;;12.10;70.50;;;;;;4966695;28;20042;-73
2023/03/28 12:19:29;;;;;;;5.00;2.10;;;12.00;72.90;;;;;;4964024;28;20039;-73
2023/03/28 12:22:01;;;;;;;5.68;1.98;;;11.90;70.10;;;;;;4965924;28;20394;-73
2023/03/28 12:24:39;;;;;;;4.18;1.98;;;11.80;70.30;;;;;;4934832;29;20043;-73
2023/03/28 12:27:11;;;;;;;4.32;2.17;;;11.50;69.70;;;;;;4939902;28;20039;-73
2023/03/28 12:30:04;;;;;;;5.37;2.70;;;11.20;71.60;;;;;;4949657;28;20038;-73
2023/03/28 12:32:50;;;;;;;5.97;2.20;;;10.90;71.70;;;;;;4949218;28;20658;-72
2023/03/28 12:35:40;;;;;;;8.10;2.80;;;10.60;73.70;;;;;;4951806;28;20054;-73
2023/03/28 12:38:27;;;;;;;3.85;2.00;;;10.50;73.90;;;;;;4957494;28;20040;-73
2023/03/28 12:41:00;;;;;;;4.82;2.42;;;10.30;70.70;;;;;;4947758;28;20066;-73
2023/03/28 12:43:32;;;;;;;4.55;2.65;;;10.10;73.70;;;;;;4962149;28;20081;-74
2023/03/28 12:46:02;;;;;;;7.97;2.63;;;10.10;75.50;;;;;;4950311;28;20044;-73
2023/03/28 12:48:48;;;;;;;6.78;2.38;;;10.10;75.50;;;;;;4957765;28;20129;-73
2023/03/28 12:51:24;;;;;;;3.53;2.13;;;10.00;75.20;;;;;;4972799;28;20082;-73
2023/03/28 12:54:20;;;;;;;5.30;2.67;;;10.10;75.30;;;;;;4953699;28;20038;-73
2023/03/28 12:56:57;;;;;;;4.07;2.22;;;10.20;73.20;;;;;;4934472;29;20050;-73
2023/03/28 12:59:38;;;;;;;2.97;2.00;;;10.20;76.30;;;;;;4934640;29;20094;-73
2023/03/28 13:02:35;;;;;;;4.80;2.45;;;10.30;76.10;;;;;;4919926;28;20039;-73
2023/03/28 13:05:12;;;;;;;8.88;3.00;;;10.60;76.90;;;;;;4931396;28;20748;-73
2023/03/28 13:07:55;;;;;;;5.65;2.40;;;10.70;75.90;;;;;;4959224;28;20041;-73
2023/03/28 13:10:31;;;;;;;5.07;2.30;;;10.80;74.90;;;;;;4958863;28;20038;-72
2023/03/28 13:13:22;;;;;;;3.58;2.28;;;11.00;74.30;;;;;;4933829;28;20373;-73
2023/03/28 13:16:20;;;;;;;2.72;2.20;;;11.20;70.90;;;;;;4943424;28;20126;-73
2023/03/28 13:19:08;;;;;;;7.03;2.92;;;11.30;69.20;;;;;;4924995;28;20054;-73